sensor_id;sensor_type;location;lat;lon;timestamp;P1;durP1;ratioP1;P2;durP2;ratioP2
3747;SDS011;1889;50.058;8.688;2022-09-12T00:01:49;9.48;;;7.15;;
3747;SDS011;1889;50.058;8.688;2022-09-12T00:04:18;9.45;;;6.70;;
3747;SDS011;1889;50.058;8.688;2022-09-12T00:06:47;7.70;;;5.85;;
3747;SDS011;1889;50.058;8.688;2022-09-12T00:09:17;8.70;;;7.50;;
3747;SDS011;1889;50.058;8.688;2022-09-12T00:11:46;11.45;;;7.20;;
3747;SDS011;1889;50.058;8.688;2022-09-12T00:16:35;8.10;;;6.80;;
3747;SDS011;1889;50.058;8.688;2022-09-12T00:19:06;8.30;;;6.83;;
3747;SDS011;1889;50.058;8.688;2022-09-12T00:21:36;8.68;;;6.83;;
3747;SDS011;1889;50.058;8.688;2022-09-12T00:24:07;9.25;;;7.12;;
3747;SDS011;1889;50.058;8.688;2022-09-12T00:26:38;7.50;;;6.47;;
3747;SDS011;1889;50.058;8.688;2022-09-12T00:29:20;9.15;;;7.22;;
3747;SDS011;1889;50.058;8.688;2022-09-12T00:31:45;9.43;;;6.83;;
3747;SDS011;1889;50.058;8.688;2022-09-12T00:34:15;8.03;;;6.62;;
3747;SDS011;1889;50.058;8.688;2022-09-12T00:36:44;11.08;;;7.50;;
3747;SDS011;1889;50.058;8.688;2022-09-12T00:39:14;11.68;;;7.33;;
3747;SDS011;1889;50.058;8.688;2022-09-12T00:41:44;7.97;;;6.75;;
3747;SDS011;1889;50.058;8.688;2022-09-12T00:47:05;8.33;;;6.90;;
3747;SDS011;1889;50.058;8.688;2022-09-12T00:49:49;8.80;;;6.50;;
3747;SDS011;1889;50.058;8.688;2022-09-12T00:52:25;8.80;;;7.00;;
3747;SDS011;1889;50.058;8.688;2022-09-12T00:54:57;10.15;;;7.50;;
3747;SDS011;1889;50.058;8.688;2022-09-12T00:57:38;10.65;;;6.95;;
3747;SDS011;1889;50.058;8.688;2022-09-12T01:00:13;8.48;;;6.80;;
3747;SDS011;1889;50.058;8.688;2022-09-12T01:02:47;9.73;;;7.15;;
3747;SDS011;1889;50.058;8.688;2022-09-12T01:05:20;7.90;;;6.58;;
3747;SDS011;1889;50.058;8.688;2022-09-12T01:07:51;8.10;;;6.87;;
3747;SDS011;1889;50.058;8.688;2022-09-12T01:10:22;9.08;;;6.53;;
3747;SDS011;1889;50.058;8.688;2022-09-12T01:12:52;10.80;;;7.53;;
3747;SDS011;1889;50.058;8.688;2022-09-12T01:15:21;11.75;;;6.75;;
3747;SDS011;1889;50.058;8.688;2022-09-12T01:18:12;8.78;;;7.10;;
3747;SDS011;1889;50.058;8.688;2022-09-12T01:26:25;8.18;;;7.08;;
3747;SDS011;1889;50.058;8.688;2022-09-12T01:29:28;9.13;;;7.28;;
3747;SDS011;1889;50.058;8.688;2022-09-12T01:32:14;7.70;;;6.80;;
3747;SDS011;1889;50.058;8.688;2022-09-12T01:37:28;10.23;;;7.03;;
3747;SDS011;1889;50.058;8.688;2022-09-12T01:40:02;9.10;;;7.12;;
3747;SDS011;1889;50.058;8.688;2022-09-12T01:45:30;9.17;;;6.80;;
3747;SDS011;1889;50.058;8.688;2022-09-12T01:48:17;7.08;;;5.97;;
3747;SDS011;1889;50.058;8.688;2022-09-12T01:51:08;8.28;;;7.03;;
3747;SDS011;1889;50.058;8.688;2022-09-12T01:53:41;8.43;;;7.08;;
3747;SDS011;1889;50.058;8.688;2022-09-12T01:56:14;8.43;;;7.05;;
3747;SDS011;1889;50.058;8.688;2022-09-12T01:58:50;12.65;;;7.53;;
3747;SDS011;1889;50.058;8.688;2022-09-12T02:01:27;9.35;;;6.47;;
3747;SDS011;1889;50.058;8.688;2022-09-12T02:03:57;7.50;;;6.25;;
3747;SDS011;1889;50.058;8.688;2022-09-12T02:06:49;10.95;;;7.33;;
3747;SDS011;1889;50.058;8.688;2022-09-12T02:09:21;11.50;;;7.75;;
3747;SDS011;1889;50.058;8.688;2022-09-12T02:11:53;8.60;;;7.22;;
3747;SDS011;1889;50.058;8.688;2022-09-12T02:14:29;8.43;;;7.15;;
3747;SDS011;1889;50.058;8.688;2022-09-12T02:17:05;8.73;;;7.37;;
3747;SDS011;1889;50.058;8.688;2022-09-12T02:19:35;9.13;;;7.12;;
3747;SDS011;1889;50.058;8.688;2022-09-12T02:22:06;9.65;;;6.58;;
3747;SDS011;1889;50.058;8.688;2022-09-12T02:24:39;9.25;;;6.60;;
3747;SDS011;1889;50.058;8.688;2022-09-12T02:27:13;9.50;;;7.05;;
3747;SDS011;1889;50.058;8.688;2022-09-12T02:29:43;10.55;;;7.25;;
3747;SDS011;1889;50.058;8.688;2022-09-12T02:35:07;8.78;;;7.25;;
3747;SDS011;1889;50.058;8.688;2022-09-12T02:37:59;9.03;;;7.33;;
3747;SDS011;1889;50.058;8.688;2022-09-12T02:40:19;9.18;;;7.12;;
3747;SDS011;1889;50.058;8.688;2022-09-12T02:42:49;8.05;;;6.75;;
3747;SDS011;1889;50.058;8.688;2022-09-12T02:45:19;7.62;;;6.75;;
3747;SDS011;1889;50.058;8.688;2022-09-12T02:47:52;8.78;;;7.05;;
3747;SDS011;1889;50.058;8.688;2022-09-12T02:50:22;9.75;;;7.17;;
3747;SDS011;1889;50.058;8.688;2022-09-12T02:52:51;8.25;;;7.20;;
3747;SDS011;1889;50.058;8.688;2022-09-12T02:55:23;8.25;;;6.95;;
3747;SDS011;1889;50.058;8.688;2022-09-12T02:57:54;9.30;;;6.95;;
3747;SDS011;1889;50.058;8.688;2022-09-12T03:00:23;8.65;;;7.15;;
3747;SDS011;1889;50.058;8.688;2022-09-12T03:05:42;9.75;;;6.50;;
3747;SDS011;1889;50.058;8.688;2022-09-12T03:10:50;9.25;;;6.85;;
3747;SDS011;1889;50.058;8.688;2022-09-12T03:19:20;8.23;;;6.95;;
3747;SDS011;1889;50.058;8.688;2022-09-12T03:21:52;9.40;;;7.67;;
3747;SDS011;1889;50.058;8.688;2022-09-12T03:24:48;7.85;;;6.75;;
3747;SDS011;1889;50.058;8.688;2022-09-12T03:27:15;8.78;;;7.00;;
3747;SDS011;1889;50.058;8.688;2022-09-12T03:29:55;7.15;;;6.28;;
3747;SDS011;1889;50.058;8.688;2022-09-12T03:32:42;8.25;;;6.87;;
3747;SDS011;1889;50.058;8.688;2022-09-12T03:35:14;9.23;;;7.12;;
3747;SDS011;1889;50.058;8.688;2022-09-12T03:37:47;10.98;;;7.58;;
3747;SDS011;1889;50.058;8.688;2022-09-12T03:40:18;8.98;;;6.55;;
3747;SDS011;1889;50.058;8.688;2022-09-12T03:42:47;9.03;;;7.33;;
3747;SDS011;1889;50.058;8.688;2022-09-12T03:45:16;9.03;;;6.72;;
3747;SDS011;1889;50.058;8.688;2022-09-12T03:47:46;8.78;;;6.70;;
3747;SDS011;1889;50.058;8.688;2022-09-12T03:50:15;8.25;;;6.60;;
3747;SDS011;1889;50.058;8.688;2022-09-12T03:52:45;7.72;;;6.30;;
3747;SDS011;1889;50.058;8.688;2022-09-12T03:55:14;8.88;;;7.10;;
3747;SDS011;1889;50.058;8.688;2022-09-12T03:57:44;9.03;;;7.25;;
3747;SDS011;1889;50.058;8.688;2022-09-12T04:00:13;8.93;;;7.17;;
3747;SDS011;1889;50.058;8.688;2022-09-12T04:02:42;8.10;;;6.92;;
3747;SDS011;1889;50.058;8.688;2022-09-12T04:05:12;7.97;;;6.62;;
3747;SDS011;1889;50.058;8.688;2022-09-12T04:07:41;8.03;;;7.22;;
3747;SDS011;1889;50.058;8.688;2022-09-12T04:10:11;8.08;;;6.67;;
3747;SDS011;1889;50.058;8.688;2022-09-12T04:12:40;8.85;;;7.10;;
3747;SDS011;1889;50.058;8.688;2022-09-12T04:15:09;7.10;;;6.35;;
3747;SDS011;1889;50.058;8.688;2022-09-12T04:17:39;7.47;;;6.35;;
3747;SDS011;1889;50.058;8.688;2022-09-12T04:20:08;9.43;;;6.87;;
3747;SDS011;1889;50.058;8.688;2022-09-12T04:22:37;7.70;;;6.65;;
3747;SDS011;1889;50.058;8.688;2022-09-12T04:25:07;8.20;;;6.72;;
3747;SDS011;1889;50.058;8.688;2022-09-12T04:27:38;9.30;;;6.92;;
3747;SDS011;1889;50.058;8.688;2022-09-12T04:30:07;10.08;;;7.78;;
3747;SDS011;1889;50.058;8.688;2022-09-12T04:32:37;10.60;;;7.33;;
3747;SDS011;1889;50.058;8.688;2022-09-12T04:35:07;13.70;;;8.03;;
3747;SDS011;1889;50.058;8.688;2022-09-12T04:37:38;8.35;;;6.90;;
3747;SDS011;1889;50.058;8.688;2022-09-12T04:40:08;8.90;;;6.90;;
3747;SDS011;1889;50.058;8.688;2022-09-12T04:42:37;7.83;;;7.00;;
3747;SDS011;1889;50.058;8.688;2022-09-12T04:45:07;8.45;;;6.75;;
3747;SDS011;1889;50.058;8.688;2022-09-12T04:47:36;8.38;;;6.67;;
3747;SDS011;1889;50.058;8.688;2022-09-12T04:50:06;7.78;;;6.80;;
3747;SDS011;1889;50.058;8.688;2022-09-12T04:52:36;8.90;;;6.90;;
3747;SDS011;1889;50.058;8.688;2022-09-12T04:55:05;8.20;;;7.15;;
3747;SDS011;1889;50.058;8.688;2022-09-12T04:57:35;9.45;;;6.80;;
3747;SDS011;1889;50.058;8.688;2022-09-12T05:00:05;8.58;;;6.78;;
3747;SDS011;1889;50.058;8.688;2022-09-12T05:02:37;9.10;;;7.08;;
3747;SDS011;1889;50.058;8.688;2022-09-12T05:05:07;7.85;;;6.42;;
3747;SDS011;1889;50.058;8.688;2022-09-12T05:07:38;8.33;;;6.55;;
3747;SDS011;1889;50.058;8.688;2022-09-12T05:10:07;6.75;;;5.78;;
3747;SDS011;1889;50.058;8.688;2022-09-12T05:12:38;10.08;;;6.67;;
3747;SDS011;1889;50.058;8.688;2022-09-12T05:15:08;7.53;;;6.40;;
3747;SDS011;1889;50.058;8.688;2022-09-12T05:17:38;7.53;;;6.03;;
3747;SDS011;1889;50.058;8.688;2022-09-12T05:20:07;8.95;;;6.17;;
3747;SDS011;1889;50.058;8.688;2022-09-12T05:22:39;7.47;;;6.37;;
3747;SDS011;1889;50.058;8.688;2022-09-12T05:25:08;8.80;;;6.67;;
3747;SDS011;1889;50.058;8.688;2022-09-12T05:27:37;6.80;;;6.10;;
3747;SDS011;1889;50.058;8.688;2022-09-12T05:30:07;8.20;;;6.40;;
3747;SDS011;1889;50.058;8.688;2022-09-12T05:32:37;7.72;;;6.65;;
3747;SDS011;1889;50.058;8.688;2022-09-12T05:35:07;6.87;;;6.00;;
3747;SDS011;1889;50.058;8.688;2022-09-12T05:37:37;9.40;;;6.30;;
3747;SDS011;1889;50.058;8.688;2022-09-12T05:40:10;7.95;;;6.58;;
3747;SDS011;1889;50.058;8.688;2022-09-12T05:42:41;8.20;;;6.67;;
3747;SDS011;1889;50.058;8.688;2022-09-12T05:45:10;11.08;;;6.42;;
3747;SDS011;1889;50.058;8.688;2022-09-12T05:47:40;7.55;;;6.78;;
3747;SDS011;1889;50.058;8.688;2022-09-12T05:50:13;7.67;;;6.03;;
3747;SDS011;1889;50.058;8.688;2022-09-12T05:52:42;8.00;;;6.45;;
3747;SDS011;1889;50.058;8.688;2022-09-12T05:55:12;8.28;;;6.67;;
3747;SDS011;1889;50.058;8.688;2022-09-12T05:57:44;8.10;;;6.70;;
3747;SDS011;1889;50.058;8.688;2022-09-12T06:00:14;6.80;;;6.08;;
3747;SDS011;1889;50.058;8.688;2022-09-12T06:02:43;7.62;;;6.75;;
3747;SDS011;1889;50.058;8.688;2022-09-12T06:05:14;8.45;;;6.35;;
3747;SDS011;1889;50.058;8.688;2022-09-12T06:07:45;7.45;;;6.10;;
3747;SDS011;1889;50.058;8.688;2022-09-12T06:10:14;9.18;;;7.03;;
3747;SDS011;1889;50.058;8.688;2022-09-12T06:12:44;7.47;;;6.67;;
3747;SDS011;1889;50.058;8.688;2022-09-12T06:15:14;9.25;;;6.97;;
3747;SDS011;1889;50.058;8.688;2022-09-12T06:17:43;7.80;;;6.78;;
3747;SDS011;1889;50.058;8.688;2022-09-12T06:20:12;8.03;;;6.85;;
3747;SDS011;1889;50.058;8.688;2022-09-12T06:22:42;8.30;;;6.53;;
3747;SDS011;1889;50.058;8.688;2022-09-12T06:25:11;10.60;;;8.20;;
3747;SDS011;1889;50.058;8.688;2022-09-12T06:27:40;9.63;;;7.30;;
3747;SDS011;1889;50.058;8.688;2022-09-12T06:30:10;10.90;;;7.85;;
3747;SDS011;1889;50.058;8.688;2022-09-12T06:32:40;10.28;;;7.58;;
3747;SDS011;1889;50.058;8.688;2022-09-12T06:35:09;8.78;;;7.58;;
3747;SDS011;1889;50.058;8.688;2022-09-12T06:37:42;8.15;;;6.90;;
3747;SDS011;1889;50.058;8.688;2022-09-12T06:40:13;9.38;;;7.20;;
3747;SDS011;1889;50.058;8.688;2022-09-12T06:42:43;8.15;;;7.20;;
3747;SDS011;1889;50.058;8.688;2022-09-12T06:45:12;9.15;;;6.90;;
3747;SDS011;1889;50.058;8.688;2022-09-12T06:47:42;8.73;;;7.45;;
3747;SDS011;1889;50.058;8.688;2022-09-12T06:50:12;7.55;;;6.83;;
3747;SDS011;1889;50.058;8.688;2022-09-12T06:52:41;8.78;;;7.15;;
3747;SDS011;1889;50.058;8.688;2022-09-12T06:55:10;8.98;;;7.35;;
3747;SDS011;1889;50.058;8.688;2022-09-12T06:57:40;8.45;;;6.90;;
3747;SDS011;1889;50.058;8.688;2022-09-12T07:00:10;10.50;;;7.45;;
3747;SDS011;1889;50.058;8.688;2022-09-12T07:02:40;7.65;;;6.83;;
3747;SDS011;1889;50.058;8.688;2022-09-12T07:05:10;8.65;;;7.17;;
3747;SDS011;1889;50.058;8.688;2022-09-12T07:07:40;10.85;;;6.90;;
3747;SDS011;1889;50.058;8.688;2022-09-12T07:10:09;11.55;;;7.60;;
3747;SDS011;1889;50.058;8.688;2022-09-12T07:12:38;7.17;;;6.15;;
3747;SDS011;1889;50.058;8.688;2022-09-12T07:15:08;7.65;;;6.53;;
3747;SDS011;1889;50.058;8.688;2022-09-12T07:17:38;8.85;;;7.15;;
3747;SDS011;1889;50.058;8.688;2022-09-12T07:20:07;7.60;;;6.00;;
3747;SDS011;1889;50.058;8.688;2022-09-12T07:22:37;7.53;;;6.62;;
3747;SDS011;1889;50.058;8.688;2022-09-12T07:25:07;7.45;;;6.17;;
3747;SDS011;1889;50.058;8.688;2022-09-12T07:27:37;6.67;;;5.78;;
3747;SDS011;1889;50.058;8.688;2022-09-12T07:30:06;7.70;;;6.33;;
3747;SDS011;1889;50.058;8.688;2022-09-12T07:32:36;9.15;;;5.92;;
3747;SDS011;1889;50.058;8.688;2022-09-12T07:35:05;7.45;;;6.25;;
3747;SDS011;1889;50.058;8.688;2022-09-12T07:37:35;7.50;;;6.72;;
3747;SDS011;1889;50.058;8.688;2022-09-12T07:40:04;7.72;;;6.67;;
3747;SDS011;1889;50.058;8.688;2022-09-12T07:42:34;7.55;;;5.80;;
3747;SDS011;1889;50.058;8.688;2022-09-12T07:45:03;7.45;;;6.75;;
3747;SDS011;1889;50.058;8.688;2022-09-12T07:47:34;6.72;;;6.03;;
3747;SDS011;1889;50.058;8.688;2022-09-12T07:50:04;6.22;;;5.62;;
3747;SDS011;1889;50.058;8.688;2022-09-12T07:52:33;6.15;;;5.55;;
3747;SDS011;1889;50.058;8.688;2022-09-12T07:55:03;6.28;;;5.42;;
3747;SDS011;1889;50.058;8.688;2022-09-12T07:57:32;6.25;;;5.50;;
3747;SDS011;1889;50.058;8.688;2022-09-12T08:00:03;8.28;;;6.28;;
3747;SDS011;1889;50.058;8.688;2022-09-12T08:02:35;5.62;;;5.10;;
3747;SDS011;1889;50.058;8.688;2022-09-12T08:05:04;7.83;;;5.92;;
3747;SDS011;1889;50.058;8.688;2022-09-12T08:07:34;6.58;;;5.87;;
3747;SDS011;1889;50.058;8.688;2022-09-12T08:10:03;6.45;;;5.65;;
3747;SDS011;1889;50.058;8.688;2022-09-12T08:12:33;7.90;;;6.62;;
3747;SDS011;1889;50.058;8.688;2022-09-12T08:15:03;6.60;;;5.28;;
3747;SDS011;1889;50.058;8.688;2022-09-12T08:17:33;5.78;;;5.15;;
3747;SDS011;1889;50.058;8.688;2022-09-12T08:20:02;7.33;;;6.00;;
3747;SDS011;1889;50.058;8.688;2022-09-12T08:22:32;6.62;;;5.90;;
3747;SDS011;1889;50.058;8.688;2022-09-12T08:25:01;7.75;;;5.97;;
3747;SDS011;1889;50.058;8.688;2022-09-12T08:27:31;6.70;;;6.00;;
3747;SDS011;1889;50.058;8.688;2022-09-12T08:30:00;6.83;;;5.95;;
3747;SDS011;1889;50.058;8.688;2022-09-12T08:32:29;7.65;;;6.53;;
3747;SDS011;1889;50.058;8.688;2022-09-12T08:34:59;6.10;;;5.35;;
3747;SDS011;1889;50.058;8.688;2022-09-12T08:37:29;6.37;;;5.78;;
3747;SDS011;1889;50.058;8.688;2022-09-12T08:39:58;7.20;;;5.33;;
3747;SDS011;1889;50.058;8.688;2022-09-12T08:42:32;7.50;;;6.20;;
3747;SDS011;1889;50.058;8.688;2022-09-12T08:45:17;7.08;;;6.30;;
3747;SDS011;1889;50.058;8.688;2022-09-12T08:47:44;5.95;;;5.33;;
3747;SDS011;1889;50.058;8.688;2022-09-12T08:50:16;6.75;;;5.80;;
3747;SDS011;1889;50.058;8.688;2022-09-12T08:53:09;5.70;;;5.17;;
3747;SDS011;1889;50.058;8.688;2022-09-12T08:55:33;5.58;;;5.08;;
3747;SDS011;1889;50.058;8.688;2022-09-12T08:58:14;5.08;;;4.58;;
3747;SDS011;1889;50.058;8.688;2022-09-12T09:09:25;5.80;;;5.17;;
3747;SDS011;1889;50.058;8.688;2022-09-12T09:15:10;6.22;;;5.28;;
3747;SDS011;1889;50.058;8.688;2022-09-12T09:17:49;6.70;;;4.85;;
3747;SDS011;1889;50.058;8.688;2022-09-12T09:20:32;5.30;;;4.80;;
3747;SDS011;1889;50.058;8.688;2022-09-12T09:23:10;6.37;;;5.13;;
3747;SDS011;1889;50.058;8.688;2022-09-12T09:28:40;5.20;;;4.70;;
3747;SDS011;1889;50.058;8.688;2022-09-12T09:31:17;6.28;;;5.10;;
3747;SDS011;1889;50.058;8.688;2022-09-12T09:33:49;6.07;;;5.17;;
3747;SDS011;1889;50.058;8.688;2022-09-12T09:36:22;5.60;;;5.00;;
3747;SDS011;1889;50.058;8.688;2022-09-12T09:39:13;6.10;;;5.03;;
3747;SDS011;1889;50.058;8.688;2022-09-12T09:44:40;4.53;;;4.12;;
3747;SDS011;1889;50.058;8.688;2022-09-12T09:47:09;7.73;;;5.07;;
3747;SDS011;1889;50.058;8.688;2022-09-12T09:49:39;5.10;;;4.57;;
3747;SDS011;1889;50.058;8.688;2022-09-12T09:52:13;6.40;;;5.00;;
3747;SDS011;1889;50.058;8.688;2022-09-12T09:54:51;5.80;;;5.13;;
3747;SDS011;1889;50.058;8.688;2022-09-12T09:57:58;6.40;;;5.43;;
3747;SDS011;1889;50.058;8.688;2022-09-12T10:03:03;5.30;;;4.80;;
3747;SDS011;1889;50.058;8.688;2022-09-12T10:05:52;6.07;;;4.20;;
3747;SDS011;1889;50.058;8.688;2022-09-12T10:08:24;5.63;;;4.47;;
3747;SDS011;1889;50.058;8.688;2022-09-12T10:11:02;5.43;;;4.93;;
3747;SDS011;1889;50.058;8.688;2022-09-12T10:13:41;4.57;;;4.17;;
3747;SDS011;1889;50.058;8.688;2022-09-12T10:16:21;5.30;;;4.73;;
3747;SDS011;1889;50.058;8.688;2022-09-12T10:18:54;4.50;;;4.10;;
3747;SDS011;1889;50.058;8.688;2022-09-12T10:24:01;4.33;;;3.93;;
3747;SDS011;1889;50.058;8.688;2022-09-12T10:26:33;6.80;;;4.43;;
3747;SDS011;1889;50.058;8.688;2022-09-12T10:29:09;4.43;;;3.93;;
3747;SDS011;1889;50.058;8.688;2022-09-12T10:31:43;4.27;;;3.87;;
3747;SDS011;1889;50.058;8.688;2022-09-12T10:34:37;4.57;;;4.17;;
3747;SDS011;1889;50.058;8.688;2022-09-12T10:36:50;4.40;;;4.00;;
3747;SDS011;1889;50.058;8.688;2022-09-12T10:39:21;4.80;;;4.37;;
3747;SDS011;1889;50.058;8.688;2022-09-12T10:41:50;4.83;;;4.33;;
3747;SDS011;1889;50.058;8.688;2022-09-12T10:47:19;4.20;;;3.57;;
3747;SDS011;1889;50.058;8.688;2022-09-12T10:49:50;3.87;;;3.47;;
3747;SDS011;1889;50.058;8.688;2022-09-12T10:52:20;3.87;;;3.47;;
3747;SDS011;1889;50.058;8.688;2022-09-12T10:54:51;4.03;;;3.63;;
3747;SDS011;1889;50.058;8.688;2022-09-12T11:00:26;4.10;;;3.70;;
3747;SDS011;1889;50.058;8.688;2022-09-12T11:03:39;4.27;;;3.60;;
3747;SDS011;1889;50.058;8.688;2022-09-12T11:05:56;4.37;;;3.97;;
3747;SDS011;1889;50.058;8.688;2022-09-12T11:14:12;4.23;;;3.70;;
3747;SDS011;1889;50.058;8.688;2022-09-12T11:16:47;4.37;;;3.53;;
3747;SDS011;1889;50.058;8.688;2022-09-12T11:22:18;4.03;;;3.40;;
3747;SDS011;1889;50.058;8.688;2022-09-12T11:27:53;4.50;;;4.10;;
3747;SDS011;1889;50.058;8.688;2022-09-12T11:30:23;3.43;;;3.10;;
3747;SDS011;1889;50.058;8.688;2022-09-12T11:33:04;4.33;;;3.70;;
3747;SDS011;1889;50.058;8.688;2022-09-12T11:35:50;3.83;;;3.53;;
3747;SDS011;1889;50.058;8.688;2022-09-12T11:38:23;4.20;;;3.80;;
3747;SDS011;1889;50.058;8.688;2022-09-12T11:41:13;4.60;;;4.17;;
3747;SDS011;1889;50.058;8.688;2022-09-12T11:43:57;4.57;;;3.83;;
3747;SDS011;1889;50.058;8.688;2022-09-12T11:46:33;4.17;;;3.77;;
3747;SDS011;1889;50.058;8.688;2022-09-12T11:54:38;3.50;;;3.20;;
3747;SDS011;1889;50.058;8.688;2022-09-12T11:57:25;4.50;;;3.97;;
3747;SDS011;1889;50.058;8.688;2022-09-12T12:03:02;2.83;;;2.63;;
3747;SDS011;1889;50.058;8.688;2022-09-12T12:05:41;3.40;;;3.10;;
3747;SDS011;1889;50.058;8.688;2022-09-12T12:08:13;2.97;;;2.63;;
3747;SDS011;1889;50.058;8.688;2022-09-12T12:10:47;2.67;;;2.43;;
3747;SDS011;1889;50.058;8.688;2022-09-12T12:19:06;4.00;;;3.17;;
3747;SDS011;1889;50.058;8.688;2022-09-12T12:21:45;3.07;;;2.77;;
3747;SDS011;1889;50.058;8.688;2022-09-12T12:24:20;3.13;;;2.90;;
3747;SDS011;1889;50.058;8.688;2022-09-12T12:26:55;3.17;;;2.90;;
3747;SDS011;1889;50.058;8.688;2022-09-12T12:29:36;4.07;;;2.83;;
3747;SDS011;1889;50.058;8.688;2022-09-12T12:34:39;3.20;;;2.90;;
3747;SDS011;1889;50.058;8.688;2022-09-12T12:39:56;3.13;;;2.83;;
3747;SDS011;1889;50.058;8.688;2022-09-12T12:45:43;3.20;;;2.90;;
3747;SDS011;1889;50.058;8.688;2022-09-12T12:48:10;3.10;;;2.90;;
3747;SDS011;1889;50.058;8.688;2022-09-12T12:50:41;3.10;;;2.80;;
3747;SDS011;1889;50.058;8.688;2022-09-12T12:53:17;3.47;;;3.17;;
3747;SDS011;1889;50.058;8.688;2022-09-12T12:55:52;2.83;;;2.63;;
3747;SDS011;1889;50.058;8.688;2022-09-12T12:58:33;3.27;;;2.97;;
3747;SDS011;1889;50.058;8.688;2022-09-12T13:01:17;2.47;;;2.27;;
3747;SDS011;1889;50.058;8.688;2022-09-12T13:03:56;3.63;;;2.97;;
3747;SDS011;1889;50.058;8.688;2022-09-12T13:06:34;4.27;;;2.80;;
3747;SDS011;1889;50.058;8.688;2022-09-12T13:09:24;3.20;;;2.90;;
3747;SDS011;1889;50.058;8.688;2022-09-12T13:12:31;2.77;;;2.57;;
3747;SDS011;1889;50.058;8.688;2022-09-12T13:14:46;2.90;;;2.70;;
3747;SDS011;1889;50.058;8.688;2022-09-12T13:17:14;3.00;;;2.80;;
3747;SDS011;1889;50.058;8.688;2022-09-12T13:19:45;3.43;;;3.00;;
3747;SDS011;1889;50.058;8.688;2022-09-12T13:22:15;3.23;;;2.93;;
3747;SDS011;1889;50.058;8.688;2022-09-12T13:24:46;3.27;;;2.97;;
3747;SDS011;1889;50.058;8.688;2022-09-12T13:27:21;3.67;;;3.37;;
3747;SDS011;1889;50.058;8.688;2022-09-12T13:30:05;3.10;;;2.90;;
3747;SDS011;1889;50.058;8.688;2022-09-12T13:32:42;3.37;;;3.07;;
3747;SDS011;1889;50.058;8.688;2022-09-12T13:43:33;3.90;;;3.30;;
3747;SDS011;1889;50.058;8.688;2022-09-12T13:45:58;3.30;;;3.00;;
3747;SDS011;1889;50.058;8.688;2022-09-12T13:48:27;3.73;;;2.80;;
3747;SDS011;1889;50.058;8.688;2022-09-12T13:50:57;3.33;;;2.90;;
3747;SDS011;1889;50.058;8.688;2022-09-12T13:53:35;3.10;;;2.80;;
3747;SDS011;1889;50.058;8.688;2022-09-12T13:56:06;3.40;;;3.10;;
3747;SDS011;1889;50.058;8.688;2022-09-12T13:58:35;4.70;;;3.53;;
3747;SDS011;1889;50.058;8.688;2022-09-12T14:01:14;3.03;;;2.83;;
3747;SDS011;1889;50.058;8.688;2022-09-12T14:06:46;3.40;;;3.10;;
3747;SDS011;1889;50.058;8.688;2022-09-12T14:09:31;3.80;;;2.87;;
3747;SDS011;1889;50.058;8.688;2022-09-12T14:12:02;3.77;;;3.47;;
3747;SDS011;1889;50.058;8.688;2022-09-12T14:14:35;3.30;;;3.00;;
3747;SDS011;1889;50.058;8.688;2022-09-12T14:20:04;3.17;;;2.87;;
3747;SDS011;1889;50.058;8.688;2022-09-12T14:22:35;4.00;;;3.60;;
3747;SDS011;1889;50.058;8.688;2022-09-12T14:25:05;3.97;;;3.57;;
3747;SDS011;1889;50.058;8.688;2022-09-12T14:27:40;3.60;;;3.30;;
3747;SDS011;1889;50.058;8.688;2022-09-12T14:35:44;3.03;;;2.73;;
3747;SDS011;1889;50.058;8.688;2022-09-12T14:41:00;3.37;;;3.07;;
3747;SDS011;1889;50.058;8.688;2022-09-12T14:43:37;3.50;;;3.20;;
3747;SDS011;1889;50.058;8.688;2022-09-12T14:46:24;3.50;;;3.20;;
3747;SDS011;1889;50.058;8.688;2022-09-12T14:48:56;3.10;;;2.80;;
3747;SDS011;1889;50.058;8.688;2022-09-12T14:51:30;3.20;;;2.90;;
3747;SDS011;1889;50.058;8.688;2022-09-12T14:54:02;3.50;;;3.20;;
3747;SDS011;1889;50.058;8.688;2022-09-12T14:56:43;3.33;;;3.03;;
3747;SDS011;1889;50.058;8.688;2022-09-12T14:59:19;3.23;;;2.93;;
3747;SDS011;1889;50.058;8.688;2022-09-12T15:10:14;3.83;;;3.37;;
3747;SDS011;1889;50.058;8.688;2022-09-12T15:12:43;3.20;;;2.90;;
3747;SDS011;1889;50.058;8.688;2022-09-12T15:15:13;4.93;;;4.43;;
3747;SDS011;1889;50.058;8.688;2022-09-12T15:17:44;3.60;;;3.30;;
3747;SDS011;1889;50.058;8.688;2022-09-12T15:20:14;3.33;;;3.03;;
3747;SDS011;1889;50.058;8.688;2022-09-12T15:22:43;2.97;;;2.77;;
3747;SDS011;1889;50.058;8.688;2022-09-12T15:25:12;3.73;;;3.43;;
3747;SDS011;1889;50.058;8.688;2022-09-12T15:27:41;3.90;;;3.50;;
3747;SDS011;1889;50.058;8.688;2022-09-12T15:30:11;3.43;;;3.13;;
3747;SDS011;1889;50.058;8.688;2022-09-12T15:32:42;3.43;;;3.13;;
3747;SDS011;1889;50.058;8.688;2022-09-12T15:35:14;3.20;;;2.90;;
3747;SDS011;1889;50.058;8.688;2022-09-12T15:37:45;3.10;;;2.80;;
3747;SDS011;1889;50.058;8.688;2022-09-12T15:40:14;3.07;;;2.80;;
3747;SDS011;1889;50.058;8.688;2022-09-12T15:42:44;3.10;;;2.90;;
3747;SDS011;1889;50.058;8.688;2022-09-12T15:45:25;5.50;;;3.77;;
3747;SDS011;1889;50.058;8.688;2022-09-12T15:47:54;3.90;;;3.50;;
3747;SDS011;1889;50.058;8.688;2022-09-12T15:50:24;3.50;;;3.20;;
3747;SDS011;1889;50.058;8.688;2022-09-12T15:52:54;3.63;;;3.10;;
3747;SDS011;1889;50.058;8.688;2022-09-12T15:55:25;3.37;;;3.07;;
3747;SDS011;1889;50.058;8.688;2022-09-12T15:57:58;3.10;;;2.80;;
3747;SDS011;1889;50.058;8.688;2022-09-12T16:00:27;3.90;;;3.50;;
3747;SDS011;1889;50.058;8.688;2022-09-12T16:02:57;3.97;;;3.57;;
3747;SDS011;1889;50.058;8.688;2022-09-12T16:05:27;3.20;;;3.00;;
3747;SDS011;1889;50.058;8.688;2022-09-12T16:07:56;3.80;;;3.50;;
3747;SDS011;1889;50.058;8.688;2022-09-12T16:10:26;4.13;;;3.73;;
3747;SDS011;1889;50.058;8.688;2022-09-12T16:12:57;3.63;;;3.33;;
3747;SDS011;1889;50.058;8.688;2022-09-12T16:15:26;13.13;;;6.83;;
3747;SDS011;1889;50.058;8.688;2022-09-12T16:17:55;3.40;;;2.97;;
3747;SDS011;1889;50.058;8.688;2022-09-12T16:20:24;4.00;;;3.70;;
3747;SDS011;1889;50.058;8.688;2022-09-12T16:22:53;5.67;;;5.17;;
3747;SDS011;1889;50.058;8.688;2022-09-12T16:25:22;5.23;;;4.73;;
3747;SDS011;1889;50.058;8.688;2022-09-12T16:27:51;4.53;;;4.13;;
3747;SDS011;1889;50.058;8.688;2022-09-12T16:30:20;4.00;;;3.70;;
3747;SDS011;1889;50.058;8.688;2022-09-12T16:32:50;5.90;;;4.00;;
3747;SDS011;1889;50.058;8.688;2022-09-12T16:35:20;5.83;;;5.23;;
3747;SDS011;1889;50.058;8.688;2022-09-12T16:37:49;8.07;;;7.27;;
3747;SDS011;1889;50.058;8.688;2022-09-12T16:40:18;4.63;;;4.17;;
3747;SDS011;1889;50.058;8.688;2022-09-12T16:42:49;3.30;;;3.00;;
3747;SDS011;1889;50.058;8.688;2022-09-12T16:45:18;3.10;;;2.80;;
3747;SDS011;1889;50.058;8.688;2022-09-12T16:47:47;3.70;;;3.40;;
3747;SDS011;1889;50.058;8.688;2022-09-12T16:50:16;3.27;;;2.97;;
3747;SDS011;1889;50.058;8.688;2022-09-12T16:52:45;5.20;;;4.47;;
3747;SDS011;1889;50.058;8.688;2022-09-12T16:55:14;4.60;;;4.20;;
3747;SDS011;1889;50.058;8.688;2022-09-12T16:57:43;4.43;;;4.03;;
3747;SDS011;1889;50.058;8.688;2022-09-12T17:00:14;3.97;;;3.30;;
3747;SDS011;1889;50.058;8.688;2022-09-12T17:02:44;4.07;;;3.60;;
3747;SDS011;1889;50.058;8.688;2022-09-12T17:05:13;3.80;;;3.40;;
3747;SDS011;1889;50.058;8.688;2022-09-12T17:07:42;8.90;;;5.90;;
3747;SDS011;1889;50.058;8.688;2022-09-12T17:10:11;2.97;;;2.77;;
3747;SDS011;1889;50.058;8.688;2022-09-12T17:12:40;3.67;;;3.37;;
3747;SDS011;1889;50.058;8.688;2022-09-12T17:15:09;4.07;;;2.97;;
3747;SDS011;1889;50.058;8.688;2022-09-12T17:17:38;3.13;;;2.83;;
3747;SDS011;1889;50.058;8.688;2022-09-12T17:20:07;3.20;;;2.90;;
3747;SDS011;1889;50.058;8.688;2022-09-12T17:22:37;3.03;;;2.83;;
3747;SDS011;1889;50.058;8.688;2022-09-12T17:25:06;4.70;;;3.63;;
3747;SDS011;1889;50.058;8.688;2022-09-12T17:27:56;3.60;;;3.30;;
3747;SDS011;1889;50.058;8.688;2022-09-12T17:30:25;3.80;;;3.33;;
3747;SDS011;1889;50.058;8.688;2022-09-12T17:32:54;3.13;;;2.87;;
3747;SDS011;1889;50.058;8.688;2022-09-12T17:35:23;3.90;;;3.50;;
3747;SDS011;1889;50.058;8.688;2022-09-12T17:37:52;4.97;;;4.47;;
3747;SDS011;1889;50.058;8.688;2022-09-12T17:40:21;5.00;;;4.50;;
3747;SDS011;1889;50.058;8.688;2022-09-12T17:42:50;3.57;;;3.27;;
3747;SDS011;1889;50.058;8.688;2022-09-12T17:45:19;4.17;;;3.50;;
3747;SDS011;1889;50.058;8.688;2022-09-12T17:47:48;4.10;;;3.70;;
3747;SDS011;1889;50.058;8.688;2022-09-12T17:50:17;4.20;;;3.80;;
3747;SDS011;1889;50.058;8.688;2022-09-12T17:52:46;5.30;;;4.80;;